createdAt,value
2019-06-27T00:01:31.133Z,26.20
2019-06-27T00:03:59.850Z,26.20
2019-06-27T00:06:28.692Z,26.20
2019-06-27T00:08:57.730Z,26.10
2019-06-27T00:11:26.552Z,26.20
2019-06-27T00:13:55.556Z,26.10
2019-06-27T00:16:24.885Z,26.00
2019-06-27T00:18:53.948Z,26.00
2019-06-27T00:21:22.693Z,25.90
2019-06-27T00:23:51.708Z,25.90
2019-06-27T00:26:20.676Z,25.90
2019-06-27T00:28:49.407Z,25.90
2019-06-27T00:31:18.387Z,25.80
2019-06-27T00:33:47.104Z,25.70
2019-06-27T00:36:15.858Z,25.70
2019-06-27T00:38:44.703Z,25.70
2019-06-27T00:41:13.479Z,25.60
2019-06-27T00:43:42.465Z,25.50
2019-06-27T00:46:11.373Z,25.40
2019-06-27T00:48:40.403Z,25.30
2019-06-27T00:51:09.131Z,25.30
2019-06-27T00:53:38.086Z,25.20
2019-06-27T00:56:06.882Z,25.20
2019-06-27T00:58:36.056Z,25.10
2019-06-27T01:01:05.222Z,25.00
2019-06-27T01:03:33.979Z,25.00
2019-06-27T01:06:03.045Z,24.90
2019-06-27T01:08:31.844Z,24.80
2019-06-27T01:11:00.778Z,24.70
2019-06-27T01:13:29.609Z,24.70
2019-06-27T01:15:58.398Z,24.70
2019-06-27T01:18:27.167Z,24.60
2019-06-27T01:20:55.981Z,24.60
2019-06-27T01:23:24.842Z,24.50
2019-06-27T01:25:53.840Z,24.50
2019-06-27T01:28:22.576Z,24.40
2019-06-27T01:30:51.296Z,24.30
2019-06-27T01:33:20.042Z,24.30
2019-06-27T01:35:48.820Z,24.20
2019-06-27T01:38:17.800Z,24.20
2019-06-27T01:40:46.596Z,24.10
2019-06-27T01:43:15.457Z,24.00
2019-06-27T01:45:51.501Z,24.00
2019-06-27T01:48:20.403Z,24.00
2019-06-27T01:50:49.136Z,23.80
2019-06-27T01:53:18.183Z,23.70
2019-06-27T01:55:47.582Z,23.60
2019-06-27T01:58:16.674Z,23.50
2019-06-27T02:00:45.447Z,23.50
2019-06-27T02:03:14.236Z,23.40
2019-06-27T02:05:43.012Z,23.30
2019-06-27T02:08:11.934Z,23.30
2019-06-27T02:10:41.068Z,23.20
2019-06-27T02:13:09.881Z,23.10
2019-06-27T02:15:38.792Z,23.00
2019-06-27T02:18:07.657Z,23.00
2019-06-27T02:20:36.651Z,22.90
2019-06-27T02:23:05.512Z,22.90
2019-06-27T02:25:34.375Z,22.80
2019-06-27T02:28:04.633Z,22.80
2019-06-27T02:30:40.974Z,22.70
2019-06-27T02:33:10.091Z,22.60
2019-06-27T02:35:39.140Z,22.60
2019-06-27T02:38:07.969Z,22.40
2019-06-27T02:40:36.898Z,22.40
2019-06-27T02:43:05.708Z,22.30
2019-06-27T02:45:34.711Z,22.30
2019-06-27T02:48:03.531Z,22.30
2019-06-27T02:50:32.946Z,22.20
2019-06-27T02:53:02.059Z,22.10
2019-06-27T02:55:31.168Z,22.00
2019-06-27T02:57:59.974Z,22.00
2019-06-27T03:00:28.767Z,21.90
2019-06-27T03:02:57.557Z,21.90
2019-06-27T03:05:26.374Z,21.80
2019-06-27T03:07:55.175Z,21.70
2019-06-27T03:10:23.905Z,21.60
2019-06-27T03:12:52.781Z,21.60
2019-06-27T03:15:21.755Z,21.50
2019-06-27T03:17:50.801Z,21.50
2019-06-27T03:20:19.712Z,21.50
2019-06-27T03:22:48.771Z,21.40
2019-06-27T03:25:17.881Z,21.30
2019-06-27T03:27:46.694Z,21.30
2019-06-27T03:30:15.831Z,21.20
2019-06-27T03:32:44.649Z,21.10
2019-06-27T03:35:13.734Z,21.10
2019-06-27T03:37:42.764Z,21.10
2019-06-27T03:40:11.535Z,21.10
2019-06-27T03:42:40.361Z,21.10
2019-06-27T03:45:14.899Z,21.00
2019-06-27T03:47:40.303Z,21.00
2019-06-27T03:50:09.096Z,20.90
2019-06-27T03:52:37.869Z,20.90
2019-06-27T03:55:07.063Z,20.90
2019-06-27T03:57:35.886Z,20.90
2019-06-27T04:00:05.194Z,20.80
2019-06-27T04:02:34.092Z,20.80
2019-06-27T04:05:03.061Z,20.80
2019-06-27T04:07:31.868Z,20.70
2019-06-27T04:10:01.182Z,20.70
2019-06-27T04:12:30.368Z,20.60
2019-06-27T04:14:59.816Z,20.60
2019-06-27T04:17:28.876Z,20.70
2019-06-27T04:19:57.679Z,20.70
2019-06-27T04:22:26.708Z,20.70
2019-06-27T04:24:55.735Z,20.60
2019-06-27T04:27:24.562Z,20.60
2019-06-27T04:29:53.684Z,20.70
2019-06-27T04:32:22.468Z,20.60
2019-06-27T04:34:51.479Z,20.60
2019-06-27T04:37:20.292Z,20.60
2019-06-27T04:39:49.019Z,20.60
2019-06-27T04:42:17.795Z,20.70
2019-06-27T04:44:46.660Z,20.60
2019-06-27T04:47:15.465Z,20.70
2019-06-27T04:49:44.289Z,20.80
2019-06-27T04:52:13.293Z,20.70
2019-06-27T04:54:42.189Z,20.80
2019-06-27T04:57:12.841Z,20.90
2019-06-27T04:59:53.254Z,21.00
2019-06-27T05:02:12.884Z,21.00
2019-06-27T05:04:41.891Z,21.00
2019-06-27T05:07:10.705Z,21.20
2019-06-27T05:09:39.428Z,21.10
2019-06-27T05:12:08.172Z,21.00
2019-06-27T05:14:37.822Z,21.20
2019-06-27T05:17:06.868Z,21.30
2019-06-27T05:19:35.910Z,21.40
2019-06-27T05:22:04.902Z,21.40
2019-06-27T05:24:33.670Z,21.30
2019-06-27T05:27:02.723Z,21.40
2019-06-27T05:29:31.534Z,21.50
2019-06-27T05:32:00.627Z,21.30
2019-06-27T05:34:29.674Z,21.20
2019-06-27T05:36:58.708Z,21.20
2019-06-27T05:39:27.531Z,21.30
2019-06-27T05:41:56.345Z,21.30
2019-06-27T05:44:25.137Z,21.20
2019-06-27T05:46:53.951Z,21.30
2019-06-27T05:49:22.746Z,21.30
2019-06-27T05:51:51.592Z,21.40
2019-06-27T05:54:20.395Z,21.40
2019-06-27T05:56:49.136Z,21.20
2019-06-27T05:59:17.936Z,21.10
2019-06-27T06:01:46.668Z,21.10
2019-06-27T06:04:15.431Z,21.30
2019-06-27T06:06:44.451Z,21.20
2019-06-27T06:09:13.204Z,21.30
2019-06-27T06:11:41.959Z,21.40
2019-06-27T06:14:10.778Z,21.50
2019-06-27T06:16:39.692Z,21.40
2019-06-27T06:19:08.843Z,21.50
2019-06-27T06:21:37.804Z,21.80
2019-06-27T06:24:06.591Z,22.00
2019-06-27T06:26:35.409Z,22.00
2019-06-27T06:29:04.273Z,22.10
2019-06-27T06:31:33.062Z,22.30
2019-06-27T06:34:01.779Z,22.60
2019-06-27T06:36:30.609Z,23.10
2019-06-27T06:38:59.422Z,23.40
2019-06-27T06:41:28.206Z,23.60
2019-06-27T06:43:57.001Z,23.70
2019-06-27T06:46:25.819Z,24.10
2019-06-27T06:48:54.676Z,24.90
2019-06-27T06:51:23.453Z,24.80
2019-06-27T06:53:52.492Z,24.90
2019-06-27T06:56:21.317Z,25.90
2019-06-27T06:58:50.358Z,26.90
2019-06-27T07:01:19.139Z,27.90
2019-06-27T07:03:47.896Z,27.70
2019-06-27T07:06:16.714Z,27.90
2019-06-27T07:08:45.507Z,28.20
2019-06-27T07:11:14.837Z,28.50
2019-06-27T07:13:43.659Z,28.60
2019-06-27T07:16:12.473Z,28.40
2019-06-27T07:18:41.518Z,28.90
2019-06-27T07:21:10.389Z,29.20
2019-06-27T07:23:39.242Z,29.40
2019-06-27T07:26:08.024Z,30.10
2019-06-27T07:28:36.848Z,29.90
2019-06-27T07:31:17.231Z,29.60
2019-06-27T07:33:36.145Z,29.90
2019-06-27T07:36:05.256Z,29.30
2019-06-27T07:38:33.988Z,29.40
2019-06-27T07:41:02.750Z,29.40
2019-06-27T07:43:31.803Z,29.80
2019-06-27T07:46:00.777Z,29.90
2019-06-27T07:48:29.617Z,30.00
2019-06-27T07:50:58.500Z,30.30
2019-06-27T07:53:27.247Z,30.00
2019-06-27T07:55:56.032Z,30.30
2019-06-27T07:58:24.856Z,30.50
2019-06-27T08:00:53.895Z,31.30
2019-06-27T08:03:22.636Z,31.60
2019-06-27T08:05:51.426Z,31.70
2019-06-27T08:08:20.176Z,31.30
2019-06-27T08:10:48.940Z,31.30
2019-06-27T08:13:17.776Z,31.30
2019-06-27T08:15:46.804Z,31.90
2019-06-27T08:18:15.596Z,32.10
2019-06-27T08:20:44.428Z,32.00
2019-06-27T08:23:13.259Z,31.90
2019-06-27T08:25:42.461Z,31.70
2019-06-27T08:28:11.818Z,31.70
2019-06-27T08:30:40.663Z,31.60
2019-06-27T08:33:09.467Z,31.90
2019-06-27T08:35:38.254Z,31.70
2019-06-27T08:38:07.504Z,31.80
2019-06-27T08:40:36.360Z,32.20
2019-06-27T08:43:05.411Z,32.10
2019-06-27T08:45:34.174Z,33.10
2019-06-27T08:48:03.004Z,32.30
2019-06-27T08:50:31.861Z,32.10
2019-06-27T08:53:01.570Z,32.40
2019-06-27T08:55:30.536Z,32.10
2019-06-27T08:57:59.357Z,31.80
2019-06-27T09:00:28.099Z,32.20
2019-06-27T09:02:57.009Z,32.40
2019-06-27T09:05:26.075Z,32.40
2019-06-27T09:07:54.799Z,32.20
2019-06-27T09:10:23.682Z,32.30
2019-06-27T09:12:54.789Z,32.60
2019-06-27T09:15:23.756Z,33.20
2019-06-27T09:17:52.649Z,33.80
2019-06-27T09:20:22.426Z,33.90
2019-06-27T09:22:51.189Z,34.00
2019-06-27T09:25:20.284Z,33.30
2019-06-27T09:27:49.138Z,33.10
2019-06-27T09:30:18.530Z,32.50
2019-06-27T09:32:47.376Z,33.10
2019-06-27T09:35:17.594Z,33.30
2019-06-27T09:37:46.433Z,33.10
2019-06-27T09:40:15.632Z,33.30
2019-06-27T09:42:44.509Z,33.30
2019-06-27T09:45:14.063Z,33.20
2019-06-27T09:47:42.874Z,33.40
2019-06-27T09:50:11.892Z,32.30
2019-06-27T09:52:40.627Z,32.20
2019-06-27T09:55:09.832Z,32.50
2019-06-27T09:57:38.917Z,32.20
2019-06-27T10:00:08.876Z,32.70
2019-06-27T10:02:42.239Z,32.90
2019-06-27T10:05:08.354Z,32.50
2019-06-27T10:07:37.128Z,32.50
2019-06-27T10:10:06.776Z,32.60
2019-06-27T10:12:42.208Z,32.40
2019-06-27T10:15:06.541Z,32.40
2019-06-27T10:17:35.389Z,32.60
2019-06-27T10:20:04.899Z,32.30
2019-06-27T10:22:33.657Z,32.50
2019-06-27T10:25:02.768Z,32.40
2019-06-27T10:27:33.247Z,32.80
2019-06-27T10:30:02.369Z,32.80
2019-06-27T10:32:31.171Z,32.90
2019-06-27T10:35:00.307Z,32.70
2019-06-27T10:37:29.424Z,33.00
2019-06-27T10:39:58.430Z,32.40
2019-06-27T10:42:27.264Z,32.50
2019-06-27T10:44:56.319Z,32.60
2019-06-27T10:47:25.122Z,32.50
2019-06-27T10:49:53.915Z,32.10
2019-06-27T10:52:22.985Z,32.40
2019-06-27T10:54:51.888Z,32.40
2019-06-27T10:57:20.711Z,32.50
2019-06-27T10:59:49.508Z,32.40
2019-06-27T11:02:18.334Z,32.30
2019-06-27T11:04:50.694Z,32.60
2019-06-27T11:07:19.410Z,32.30
2019-06-27T11:09:50.327Z,32.20
2019-06-27T11:12:21.691Z,32.20
2019-06-27T11:14:59.243Z,32.60
2019-06-27T11:17:23.524Z,32.80
2019-06-27T11:19:52.975Z,32.90
2019-06-27T11:22:21.876Z,32.70
2019-06-27T11:24:50.710Z,32.50
2019-06-27T11:27:19.622Z,32.30
2019-06-27T11:29:48.409Z,32.00
2019-06-27T11:32:17.351Z,32.00
2019-06-27T11:34:46.376Z,32.00
2019-06-27T11:37:15.719Z,32.00
2019-06-27T11:39:44.569Z,32.10
2019-06-27T11:42:13.617Z,31.70
2019-06-27T11:44:42.758Z,31.70
2019-06-27T11:47:11.594Z,31.70
2019-06-27T11:49:40.521Z,31.40
2019-06-27T11:52:09.612Z,30.80
2019-06-27T11:54:38.421Z,30.20
2019-06-27T11:57:07.413Z,29.80
2019-06-27T11:59:36.160Z,29.30
2019-06-27T12:02:05.058Z,29.20
2019-06-27T12:04:33.935Z,29.10
2019-06-27T12:07:02.682Z,28.70
2019-06-27T12:09:31.786Z,28.50
2019-06-27T12:12:00.855Z,28.50
2019-06-27T12:14:29.678Z,28.30
2019-06-27T12:16:58.477Z,28.20
2019-06-27T12:19:27.232Z,28.20
2019-06-27T12:21:57.712Z,28.20
2019-06-27T12:24:26.664Z,28.00
2019-06-27T12:26:55.505Z,28.00
2019-06-27T12:29:24.326Z,28.10
2019-06-27T12:31:53.363Z,28.10
2019-06-27T12:34:22.102Z,28.20
2019-06-27T12:36:51.125Z,28.20
2019-06-27T12:39:20.196Z,28.10
2019-06-27T12:41:49.000Z,28.00
2019-06-27T12:44:17.786Z,28.10
2019-06-27T12:46:46.523Z,28.10
2019-06-27T12:49:15.267Z,28.10
2019-06-27T12:51:46.452Z,28.10
2019-06-27T12:54:15.452Z,28.20
2019-06-27T12:56:45.943Z,28.20
2019-06-27T12:59:15.910Z,28.20
2019-06-27T13:01:44.817Z,28.20
2019-06-27T13:04:23.309Z,28.20
2019-06-27T13:06:44.071Z,28.20
2019-06-27T13:09:12.839Z,28.20
2019-06-27T13:11:41.661Z,28.30
2019-06-27T13:14:10.531Z,28.40
2019-06-27T13:16:39.449Z,28.20
2019-06-27T13:19:08.472Z,28.20
2019-06-27T13:21:37.276Z,28.20
2019-06-27T13:24:06.018Z,28.30
2019-06-27T13:26:35.233Z,28.20
2019-06-27T13:29:04.295Z,28.10
2019-06-27T13:31:33.342Z,28.00
2019-06-27T13:34:02.201Z,28.00
2019-06-27T13:36:33.270Z,28.00
2019-06-27T13:39:01.538Z,28.00
2019-06-27T13:41:30.246Z,28.00
2019-06-27T13:43:58.971Z,27.90
2019-06-27T13:46:27.819Z,27.90
2019-06-27T13:48:56.801Z,27.90
2019-06-27T13:51:25.972Z,27.90
2019-06-27T13:53:54.727Z,28.00
2019-06-27T13:56:23.540Z,28.10
2019-06-27T13:58:53.272Z,27.90
2019-06-27T14:01:22.199Z,28.00
2019-06-27T14:03:53.458Z,27.90
2019-06-27T14:06:23.685Z,27.80
2019-06-27T14:08:52.726Z,27.90
2019-06-27T14:11:22.042Z,27.90
2019-06-27T14:13:51.419Z,27.90
2019-06-27T14:16:20.384Z,27.90
2019-06-27T14:18:49.219Z,27.70
2019-06-27T14:21:18.030Z,27.60
2019-06-27T14:23:47.003Z,27.60
2019-06-27T14:26:15.753Z,27.70
2019-06-27T14:28:44.622Z,27.80
2019-06-27T14:31:13.666Z,27.90
2019-06-27T14:33:42.379Z,27.90
2019-06-27T14:36:11.095Z,28.00
2019-06-27T14:38:39.859Z,28.00
2019-06-27T14:41:08.995Z,27.90
2019-06-27T14:43:38.021Z,27.90
2019-06-27T14:46:06.890Z,27.80
2019-06-27T14:48:35.717Z,27.70
2019-06-27T14:51:04.444Z,27.70
2019-06-27T14:53:33.196Z,27.60
2019-06-27T14:56:02.100Z,27.60
2019-06-27T14:58:33.397Z,27.60
2019-06-27T15:01:05.098Z,27.50
2019-06-27T15:03:32.797Z,27.50
2019-06-27T15:06:01.720Z,27.50
2019-06-27T15:08:30.786Z,27.50
2019-06-27T15:10:59.604Z,27.50
2019-06-27T15:13:28.716Z,27.40
2019-06-27T15:16:11.279Z,27.30
2019-06-27T15:18:28.076Z,27.30
2019-06-27T15:20:56.866Z,27.30
2019-06-27T15:23:28.997Z,27.30
2019-06-27T15:25:56.040Z,27.20
2019-06-27T15:28:28.035Z,27.30
2019-06-27T15:30:56.783Z,27.10
2019-06-27T15:33:25.757Z,27.10
2019-06-27T15:35:54.562Z,27.10
2019-06-27T15:38:23.524Z,27.00
2019-06-27T15:40:55.309Z,27.00
2019-06-27T15:43:23.115Z,27.00
2019-06-27T15:45:52.156Z,27.00
2019-06-27T15:48:21.176Z,27.00
2019-06-27T15:50:50.298Z,27.10
2019-06-27T15:53:19.186Z,27.10
2019-06-27T15:55:48.012Z,26.90
2019-06-27T15:58:16.902Z,27.00
2019-06-27T16:00:45.989Z,26.90
2019-06-27T16:03:15.304Z,26.90
2019-06-27T16:05:44.396Z,26.80
2019-06-27T16:08:13.180Z,26.70
2019-06-27T16:10:41.990Z,26.70
2019-06-27T16:13:10.977Z,26.70
2019-06-27T16:15:39.825Z,26.60
2019-06-27T16:18:08.879Z,26.60
2019-06-27T16:20:37.636Z,26.60
2019-06-27T16:23:06.408Z,26.50
2019-06-27T16:25:35.285Z,26.50
2019-06-27T16:28:04.057Z,26.50
2019-06-27T16:30:33.088Z,26.40
2019-06-27T16:33:02.137Z,26.40
2019-06-27T16:35:30.858Z,26.30
2019-06-27T16:38:00.293Z,26.20
2019-06-27T16:40:29.201Z,26.20
2019-06-27T16:42:58.010Z,26.30
2019-06-27T16:45:26.908Z,26.20
2019-06-27T16:47:55.635Z,26.20
2019-06-27T16:50:24.410Z,26.10
2019-06-27T16:52:53.259Z,26.00
2019-06-27T16:55:22.695Z,26.00
2019-06-27T16:57:51.404Z,26.00
2019-06-27T17:00:21.542Z,25.90
2019-06-27T17:02:50.556Z,25.80
2019-06-27T17:05:19.805Z,25.80
2019-06-27T17:07:48.836Z,25.70
2019-06-27T17:10:18.321Z,25.70
2019-06-27T17:12:47.044Z,25.60
2019-06-27T17:15:16.664Z,25.60
2019-06-27T17:17:45.583Z,25.50
2019-06-27T17:20:25.267Z,25.50
2019-06-27T17:22:54.113Z,25.50
2019-06-27T17:25:22.804Z,25.40
2019-06-27T17:27:51.553Z,25.50
2019-06-27T17:30:20.694Z,25.40
2019-06-27T17:32:49.422Z,25.40
2019-06-27T17:35:18.155Z,25.30
2019-06-27T17:37:46.886Z,25.30
2019-06-27T17:40:17.764Z,25.30
2019-06-27T17:42:46.620Z,25.20
2019-06-27T17:45:16.979Z,25.20
2019-06-27T17:47:45.980Z,25.20
2019-06-27T17:50:14.843Z,25.20
2019-06-27T17:52:43.591Z,25.10
2019-06-27T17:55:12.384Z,25.00
2019-06-27T17:57:41.131Z,25.00
2019-06-27T18:00:10.238Z,24.90
2019-06-27T18:02:39.306Z,24.90
2019-06-27T18:05:08.167Z,24.90
2019-06-27T18:07:36.937Z,24.80
2019-06-27T18:10:06.213Z,24.70
2019-06-27T18:12:35.186Z,24.70
2019-06-27T18:15:04.294Z,24.60
2019-06-27T18:17:34.236Z,24.50
2019-06-27T18:20:03.299Z,24.60
2019-06-27T18:22:32.053Z,24.50
2019-06-27T18:25:00.876Z,24.40
2019-06-27T18:27:29.639Z,24.30
2019-06-27T18:29:58.869Z,24.30
2019-06-27T18:32:28.072Z,24.20
2019-06-27T18:34:56.890Z,24.20
2019-06-27T18:37:30.061Z,24.20
2019-06-27T18:39:56.724Z,24.10
2019-06-27T18:42:25.722Z,24.10
2019-06-27T18:44:54.579Z,24.00
2019-06-27T18:47:23.747Z,24.00
2019-06-27T18:49:52.544Z,23.90
2019-06-27T18:52:21.424Z,23.80
2019-06-27T18:54:50.276Z,23.80
2019-06-27T18:57:19.096Z,23.70
2019-06-27T18:59:47.874Z,23.70
2019-06-27T19:02:16.701Z,23.60
2019-06-27T19:04:45.461Z,23.60
2019-06-27T19:07:14.264Z,23.60
2019-06-27T19:09:42.993Z,23.50
2019-06-27T19:12:11.795Z,23.50
2019-06-27T19:14:40.516Z,23.40
2019-06-27T19:17:09.289Z,23.40
2019-06-27T19:19:40.093Z,23.30
2019-06-27T19:22:28.259Z,23.20
2019-06-27T19:25:10.487Z,23.20
2019-06-27T19:27:39.277Z,23.10
2019-06-27T19:30:08.354Z,22.90
2019-06-27T19:32:37.131Z,22.80
2019-06-27T19:35:06.378Z,22.80
2019-06-27T19:37:35.368Z,22.70
2019-06-27T19:40:04.696Z,22.70
2019-06-27T19:42:33.411Z,22.60
2019-06-27T19:45:02.154Z,22.60
2019-06-27T19:47:31.268Z,22.50
2019-06-27T19:50:00.082Z,22.40
2019-06-27T19:52:29.064Z,22.40
2019-06-27T19:54:57.794Z,22.30
2019-06-27T19:57:26.548Z,22.30
2019-06-27T19:59:56.003Z,22.20
2019-06-27T20:02:25.113Z,22.20
2019-06-27T20:04:53.904Z,22.10
2019-06-27T20:07:23.173Z,22.10
2019-06-27T20:09:51.962Z,22.00
2019-06-27T20:12:21.059Z,22.00
2019-06-27T20:14:49.995Z,22.00
2019-06-27T20:17:18.765Z,21.90
2019-06-27T20:19:47.554Z,21.90
2019-06-27T20:22:16.366Z,21.90
2019-06-27T20:24:45.088Z,21.80
2019-06-27T20:27:13.807Z,21.80
2019-06-27T20:29:42.546Z,21.80
2019-06-27T20:32:11.580Z,21.70
2019-06-27T20:34:40.887Z,21.70
2019-06-27T20:37:09.683Z,21.60
2019-06-27T20:39:38.505Z,21.50
2019-06-27T20:42:07.375Z,21.50
2019-06-27T20:44:36.134Z,21.50
2019-06-27T20:47:05.007Z,21.50
2019-06-27T20:49:33.787Z,21.40
2019-06-27T20:52:02.589Z,21.20
2019-06-27T20:54:31.615Z,21.20
2019-06-27T20:57:00.408Z,21.20
2019-06-27T20:59:29.221Z,21.10
2019-06-27T21:01:58.033Z,21.10
2019-06-27T21:04:27.101Z,21.10
2019-06-27T21:06:55.883Z,21.00
2019-06-27T21:09:24.612Z,20.90
2019-06-27T21:11:53.468Z,20.90
2019-06-27T21:14:22.536Z,20.90
2019-06-27T21:16:51.922Z,20.80
2019-06-27T21:19:20.764Z,20.70
2019-06-27T21:21:49.598Z,20.70
2019-06-27T21:24:18.412Z,20.60
2019-06-27T21:26:47.234Z,20.60
2019-06-27T21:29:17.168Z,20.60
2019-06-27T21:31:46.389Z,20.60
2019-06-27T21:34:15.204Z,20.60
2019-06-27T21:36:45.442Z,20.50
2019-06-27T21:39:14.232Z,20.50
2019-06-27T21:41:43.066Z,20.40
2019-06-27T21:44:11.896Z,20.30
2019-06-27T21:46:40.690Z,20.20
2019-06-27T21:49:11.414Z,20.10
2019-06-27T21:51:40.219Z,20.10
2019-06-27T21:54:09.254Z,20.00
2019-06-27T21:56:38.496Z,20.00
2019-06-27T21:59:07.432Z,20.00
2019-06-27T22:01:36.436Z,19.90
2019-06-27T22:04:05.218Z,19.90
2019-06-27T22:06:34.528Z,19.80
2019-06-27T22:09:05.490Z,19.70
2019-06-27T22:11:34.258Z,19.70
2019-06-27T22:14:03.320Z,19.70
2019-06-27T22:16:32.106Z,19.70
2019-06-27T22:19:00.864Z,19.60
2019-06-27T22:21:30.111Z,19.50
2019-06-27T22:23:59.138Z,19.40
2019-06-27T22:26:28.112Z,19.40
2019-06-27T22:28:56.838Z,19.30
2019-06-27T22:31:25.575Z,19.30
2019-06-27T22:33:54.336Z,19.30
2019-06-27T22:36:23.206Z,19.30
2019-06-27T22:39:09.765Z,19.20
2019-06-27T22:41:56.167Z,19.20
2019-06-27T22:44:42.552Z,19.20
2019-06-27T22:47:29.285Z,19.20
2019-06-27T22:49:57.646Z,19.10
2019-06-27T22:52:44.411Z,19.00
2019-06-27T22:55:16.760Z,19.00
2019-06-27T22:57:45.529Z,19.00
2019-06-27T23:00:14.451Z,19.00
2019-06-27T23:02:43.201Z,18.90
2019-06-27T23:05:11.952Z,18.80
2019-06-27T23:07:41.029Z,18.80
2019-06-27T23:10:10.023Z,18.70
2019-06-27T23:12:39.075Z,18.70
2019-06-27T23:15:07.973Z,18.70
2019-06-27T23:17:36.670Z,18.70
2019-06-27T23:20:05.757Z,18.60
2019-06-27T23:22:34.718Z,18.60
2019-06-27T23:25:03.692Z,18.50
2019-06-27T23:27:32.415Z,18.40
2019-06-27T23:30:01.612Z,18.50
2019-06-27T23:32:30.817Z,18.40
2019-06-27T23:34:59.566Z,18.30
2019-06-27T23:37:28.374Z,18.30
2019-06-27T23:40:12.892Z,18.20
2019-06-27T23:42:27.928Z,18.10
2019-06-27T23:44:56.675Z,18.10
2019-06-27T23:47:25.391Z,18.10
2019-06-27T23:49:54.399Z,18.00
2019-06-27T23:52:23.570Z,18.00
2019-06-27T23:54:52.380Z,17.90
2019-06-27T23:57:21.220Z,17.90
2019-06-27T23:59:50.005Z,17.80
